sensor_id;sensor_type;location;lat;lon;timestamp;temperature;humidity
8008;DHT22;4049;49.468;11.200;2023-06-22T00:01:19;19.30;99.90
8008;DHT22;4049;49.468;11.200;2023-06-22T00:03:46;19.30;99.90
8008;DHT22;4049;49.468;11.200;2023-06-22T00:06:13;19.30;99.90
8008;DHT22;4049;49.468;11.200;2023-06-22T00:08:40;19.30;99.90
8008;DHT22;4049;49.468;11.200;2023-06-22T00:11:07;19.30;99.90
8008;DHT22;4049;49.468;11.200;2023-06-22T00:13:35;19.20;99.90
8008;DHT22;4049;49.468;11.200;2023-06-22T00:16:03;19.20;99.90
8008;DHT22;4049;49.468;11.200;2023-06-22T00:18:30;19.10;99.90
8008;DHT22;4049;49.468;11.200;2023-06-22T00:20:57;19.10;99.90
8008;DHT22;4049;49.468;11.200;2023-06-22T00:23:24;19.10;99.90
8008;DHT22;4049;49.468;11.200;2023-06-22T00:25:51;19.00;99.90
8008;DHT22;4049;49.468;11.200;2023-06-22T00:28:18;19.00;99.90
8008;DHT22;4049;49.468;11.200;2023-06-22T00:30:48;18.90;99.90
8008;DHT22;4049;49.468;11.200;2023-06-22T00:33:15;18.90;99.90
8008;DHT22;4049;49.468;11.200;2023-06-22T00:35:41;18.90;99.90
8008;DHT22;4049;49.468;11.200;2023-06-22T00:38:08;18.80;99.90
8008;DHT22;4049;49.468;11.200;2023-06-22T00:40:35;18.80;99.90
8008;DHT22;4049;49.468;11.200;2023-06-22T00:43:03;18.70;99.90
8008;DHT22;4049;49.468;11.200;2023-06-22T00:45:30;18.70;99.90
8008;DHT22;4049;49.468;11.200;2023-06-22T00:47:59;18.60;99.90
8008;DHT22;4049;49.468;11.200;2023-06-22T00:50:27;18.70;99.90
8008;DHT22;4049;49.468;11.200;2023-06-22T00:53:00;18.60;99.90
8008;DHT22;4049;49.468;11.200;2023-06-22T00:55:28;18.60;99.90
8008;DHT22;4049;49.468;11.200;2023-06-22T00:57:55;18.50;99.90
8008;DHT22;4049;49.468;11.200;2023-06-22T01:00:23;18.50;99.90
8008;DHT22;4049;49.468;11.200;2023-06-22T01:02:50;18.50;99.90
8008;DHT22;4049;49.468;11.200;2023-06-22T01:05:20;18.50;99.90
8008;DHT22;4049;49.468;11.200;2023-06-22T01:08:00;18.50;99.90
8008;DHT22;4049;49.468;11.200;2023-06-22T01:10:33;18.40;99.90
8008;DHT22;4049;49.468;11.200;2023-06-22T01:13:03;18.40;99.90
8008;DHT22;4049;49.468;11.200;2023-06-22T01:15:36;18.40;99.90
8008;DHT22;4049;49.468;11.200;2023-06-22T01:18:04;18.30;99.90
8008;DHT22;4049;49.468;11.200;2023-06-22T01:20:34;18.30;99.90
8008;DHT22;4049;49.468;11.200;2023-06-22T01:23:12;18.30;99.90
8008;DHT22;4049;49.468;11.200;2023-06-22T01:25:48;18.30;99.90
8008;DHT22;4049;49.468;11.200;2023-06-22T01:28:33;18.20;99.90
8008;DHT22;4049;49.468;11.200;2023-06-22T01:31:02;18.20;99.90
8008;DHT22;4049;49.468;11.200;2023-06-22T01:33:33;18.20;99.90
8008;DHT22;4049;49.468;11.200;2023-06-22T01:36:02;18.10;99.90
8008;DHT22;4049;49.468;11.200;2023-06-22T01:38:30;18.10;99.90
8008;DHT22;4049;49.468;11.200;2023-06-22T01:40:57;18.10;99.90
8008;DHT22;4049;49.468;11.200;2023-06-22T01:43:26;18.00;99.90
8008;DHT22;4049;49.468;11.200;2023-06-22T01:45:56;18.00;99.90
8008;DHT22;4049;49.468;11.200;2023-06-22T01:48:23;18.00;99.90
8008;DHT22;4049;49.468;11.200;2023-06-22T01:50:51;18.00;99.90
8008;DHT22;4049;49.468;11.200;2023-06-22T01:53:20;18.00;99.90
8008;DHT22;4049;49.468;11.200;2023-06-22T01:55:47;18.00;99.90
8008;DHT22;4049;49.468;11.200;2023-06-22T01:58:14;18.00;99.90
8008;DHT22;4049;49.468;11.200;2023-06-22T02:00:56;18.00;99.90
8008;DHT22;4049;49.468;11.200;2023-06-22T02:03:28;17.90;99.90
8008;DHT22;4049;49.468;11.200;2023-06-22T02:06:01;17.90;99.90
8008;DHT22;4049;49.468;11.200;2023-06-22T02:08:32;17.90;99.90
8008;DHT22;4049;49.468;11.200;2023-06-22T02:11:02;17.90;99.90
8008;DHT22;4049;49.468;11.200;2023-06-22T02:13:30;17.80;99.90
8008;DHT22;4049;49.468;11.200;2023-06-22T02:15:59;17.90;99.90
8008;DHT22;4049;49.468;11.200;2023-06-22T02:18:26;17.80;99.90
8008;DHT22;4049;49.468;11.200;2023-06-22T02:20:53;17.80;99.90
8008;DHT22;4049;49.468;11.200;2023-06-22T02:23:20;17.80;99.90
8008;DHT22;4049;49.468;11.200;2023-06-22T02:25:47;17.80;99.90
8008;DHT22;4049;49.468;11.200;2023-06-22T02:28:14;17.80;99.90
8008;DHT22;4049;49.468;11.200;2023-06-22T02:30:41;17.80;99.90
8008;DHT22;4049;49.468;11.200;2023-06-22T02:33:09;17.80;99.90
8008;DHT22;4049;49.468;11.200;2023-06-22T02:35:36;17.80;99.90
8008;DHT22;4049;49.468;11.200;2023-06-22T02:38:04;17.80;99.90
8008;DHT22;4049;49.468;11.200;2023-06-22T02:40:31;17.80;99.90
8008;DHT22;4049;49.468;11.200;2023-06-22T02:42:58;17.70;99.90
8008;DHT22;4049;49.468;11.200;2023-06-22T02:45:27;17.70;99.90
8008;DHT22;4049;49.468;11.200;2023-06-22T02:47:55;17.70;99.90
8008;DHT22;4049;49.468;11.200;2023-06-22T02:50:23;17.70;99.90
8008;DHT22;4049;49.468;11.200;2023-06-22T02:52:50;17.70;99.90
8008;DHT22;4049;49.468;11.200;2023-06-22T02:55:17;17.70;99.90
8008;DHT22;4049;49.468;11.200;2023-06-22T02:57:44;17.70;99.90
8008;DHT22;4049;49.468;11.200;2023-06-22T03:00:13;17.80;99.90
8008;DHT22;4049;49.468;11.200;2023-06-22T03:02:43;17.80;99.90
8008;DHT22;4049;49.468;11.200;2023-06-22T03:05:10;17.80;99.90
8008;DHT22;4049;49.468;11.200;2023-06-22T03:07:40;17.80;99.90
8008;DHT22;4049;49.468;11.200;2023-06-22T03:10:08;17.90;99.90
8008;DHT22;4049;49.468;11.200;2023-06-22T03:12:36;17.90;99.90
8008;DHT22;4049;49.468;11.200;2023-06-22T03:15:04;17.90;99.90
8008;DHT22;4049;49.468;11.200;2023-06-22T03:17:31;17.90;99.90
8008;DHT22;4049;49.468;11.200;2023-06-22T03:19:58;17.80;99.90
8008;DHT22;4049;49.468;11.200;2023-06-22T03:22:25;17.80;99.90
8008;DHT22;4049;49.468;11.200;2023-06-22T03:24:53;17.80;99.90
8008;DHT22;4049;49.468;11.200;2023-06-22T03:27:20;17.80;99.90
8008;DHT22;4049;49.468;11.200;2023-06-22T03:29:46;17.80;99.90
8008;DHT22;4049;49.468;11.200;2023-06-22T03:32:13;17.70;99.90
8008;DHT22;4049;49.468;11.200;2023-06-22T03:34:40;17.70;99.90
8008;DHT22;4049;49.468;11.200;2023-06-22T03:37:13;17.70;99.90
8008;DHT22;4049;49.468;11.200;2023-06-22T03:39:40;17.60;99.90
8008;DHT22;4049;49.468;11.200;2023-06-22T03:42:09;17.60;99.90
8008;DHT22;4049;49.468;11.200;2023-06-22T03:44:35;17.60;99.90
8008;DHT22;4049;49.468;11.200;2023-06-22T03:47:03;17.60;99.90
8008;DHT22;4049;49.468;11.200;2023-06-22T03:49:32;17.60;99.90
8008;DHT22;4049;49.468;11.200;2023-06-22T03:51:59;17.60;99.90
8008;DHT22;4049;49.468;11.200;2023-06-22T03:54:26;17.60;99.90
8008;DHT22;4049;49.468;11.200;2023-06-22T03:56:53;17.60;99.90
8008;DHT22;4049;49.468;11.200;2023-06-22T03:59:21;17.60;99.90
8008;DHT22;4049;49.468;11.200;2023-06-22T04:01:48;17.60;99.90
8008;DHT22;4049;49.468;11.200;2023-06-22T04:04:16;17.60;99.90
8008;DHT22;4049;49.468;11.200;2023-06-22T04:06:42;17.60;99.90
8008;DHT22;4049;49.468;11.200;2023-06-22T04:09:09;17.60;99.90
8008;DHT22;4049;49.468;11.200;2023-06-22T04:11:36;17.60;99.90
8008;DHT22;4049;49.468;11.200;2023-06-22T04:14:03;17.60;99.90
8008;DHT22;4049;49.468;11.200;2023-06-22T04:16:31;17.70;99.90
8008;DHT22;4049;49.468;11.200;2023-06-22T04:18:58;17.70;99.90
8008;DHT22;4049;49.468;11.200;2023-06-22T04:21:25;17.70;99.90
8008;DHT22;4049;49.468;11.200;2023-06-22T04:23:52;17.70;99.90
8008;DHT22;4049;49.468;11.200;2023-06-22T04:26:18;17.70;99.90
8008;DHT22;4049;49.468;11.200;2023-06-22T04:28:46;17.80;99.90
8008;DHT22;4049;49.468;11.200;2023-06-22T04:31:17;17.80;99.90
8008;DHT22;4049;49.468;11.200;2023-06-22T04:33:46;17.80;99.90
8008;DHT22;4049;49.468;11.200;2023-06-22T04:36:13;17.80;99.90
8008;DHT22;4049;49.468;11.200;2023-06-22T04:38:40;17.90;99.90
8008;DHT22;4049;49.468;11.200;2023-06-22T04:41:07;17.90;99.90
8008;DHT22;4049;49.468;11.200;2023-06-22T04:43:39;17.90;99.90
8008;DHT22;4049;49.468;11.200;2023-06-22T04:46:06;17.90;99.90
8008;DHT22;4049;49.468;11.200;2023-06-22T04:48:33;18.00;99.90
8008;DHT22;4049;49.468;11.200;2023-06-22T04:51:02;18.00;99.90
8008;DHT22;4049;49.468;11.200;2023-06-22T04:53:30;18.10;99.90
8008;DHT22;4049;49.468;11.200;2023-06-22T04:55:57;18.10;99.90
8008;DHT22;4049;49.468;11.200;2023-06-22T04:58:23;18.10;99.90
8008;DHT22;4049;49.468;11.200;2023-06-22T05:00:54;18.10;99.90
8008;DHT22;4049;49.468;11.200;2023-06-22T05:03:22;18.20;99.90
8008;DHT22;4049;49.468;11.200;2023-06-22T05:05:51;18.20;99.90
8008;DHT22;4049;49.468;11.200;2023-06-22T05:08:20;18.20;99.90
8008;DHT22;4049;49.468;11.200;2023-06-22T05:10:54;18.30;99.90
8008;DHT22;4049;49.468;11.200;2023-06-22T05:13:20;18.30;99.90
8008;DHT22;4049;49.468;11.200;2023-06-22T05:15:53;18.40;99.90
8008;DHT22;4049;49.468;11.200;2023-06-22T05:18:26;18.50;99.90
8008;DHT22;4049;49.468;11.200;2023-06-22T05:20:53;18.50;99.90
8008;DHT22;4049;49.468;11.200;2023-06-22T05:23:21;18.60;99.90
8008;DHT22;4049;49.468;11.200;2023-06-22T05:25:48;18.60;99.90
8008;DHT22;4049;49.468;11.200;2023-06-22T05:28:15;18.70;99.90
8008;DHT22;4049;49.468;11.200;2023-06-22T05:30:42;18.80;99.90
8008;DHT22;4049;49.468;11.200;2023-06-22T05:33:08;18.80;99.90
8008;DHT22;4049;49.468;11.200;2023-06-22T05:35:35;18.90;99.90
8008;DHT22;4049;49.468;11.200;2023-06-22T05:38:02;19.00;99.90
8008;DHT22;4049;49.468;11.200;2023-06-22T05:40:30;19.10;99.90
8008;DHT22;4049;49.468;11.200;2023-06-22T05:42:57;19.10;99.90
8008;DHT22;4049;49.468;11.200;2023-06-22T05:45:26;19.30;99.90
8008;DHT22;4049;49.468;11.200;2023-06-22T05:47:53;19.30;99.90
8008;DHT22;4049;49.468;11.200;2023-06-22T05:50:19;19.40;99.90
8008;DHT22;4049;49.468;11.200;2023-06-22T05:52:46;19.50;99.90
8008;DHT22;4049;49.468;11.200;2023-06-22T05:55:13;19.60;99.90
8008;DHT22;4049;49.468;11.200;2023-06-22T05:57:42;19.60;99.90
8008;DHT22;4049;49.468;11.200;2023-06-22T06:00:10;19.70;99.90
8008;DHT22;4049;49.468;11.200;2023-06-22T06:02:38;19.80;99.90
8008;DHT22;4049;49.468;11.200;2023-06-22T06:05:09;19.90;99.90
8008;DHT22;4049;49.468;11.200;2023-06-22T06:07:36;19.90;99.90
8008;DHT22;4049;49.468;11.200;2023-06-22T06:10:03;20.00;99.90
8008;DHT22;4049;49.468;11.200;2023-06-22T06:12:31;20.10;99.90
8008;DHT22;4049;49.468;11.200;2023-06-22T06:14:59;20.20;99.90
8008;DHT22;4049;49.468;11.200;2023-06-22T06:17:26;20.40;99.90
8008;DHT22;4049;49.468;11.200;2023-06-22T06:19:53;20.50;99.90
8008;DHT22;4049;49.468;11.200;2023-06-22T06:22:20;20.60;99.90
8008;DHT22;4049;49.468;11.200;2023-06-22T06:24:48;20.70;99.90
8008;DHT22;4049;49.468;11.200;2023-06-22T06:27:15;20.80;99.90
8008;DHT22;4049;49.468;11.200;2023-06-22T06:29:44;20.90;99.90
8008;DHT22;4049;49.468;11.200;2023-06-22T06:32:15;21.10;99.90
8008;DHT22;4049;49.468;11.200;2023-06-22T06:34:42;21.20;99.90
8008;DHT22;4049;49.468;11.200;2023-06-22T06:37:09;21.30;99.90
8008;DHT22;4049;49.468;11.200;2023-06-22T06:39:36;21.40;99.90
8008;DHT22;4049;49.468;11.200;2023-06-22T06:42:04;21.50;99.90
8008;DHT22;4049;49.468;11.200;2023-06-22T06:44:31;21.60;99.90
8008;DHT22;4049;49.468;11.200;2023-06-22T06:46:58;21.70;99.90
8008;DHT22;4049;49.468;11.200;2023-06-22T06:49:26;21.80;99.90
8008;DHT22;4049;49.468;11.200;2023-06-22T06:51:54;21.90;99.90
8008;DHT22;4049;49.468;11.200;2023-06-22T06:54:21;22.00;99.90
8008;DHT22;4049;49.468;11.200;2023-06-22T06:56:48;22.10;99.90
8008;DHT22;4049;49.468;11.200;2023-06-22T06:59:15;22.30;99.90
8008;DHT22;4049;49.468;11.200;2023-06-22T07:01:42;22.40;99.90
8008;DHT22;4049;49.468;11.200;2023-06-22T07:04:10;22.50;99.90
8008;DHT22;4049;49.468;11.200;2023-06-22T07:06:38;22.60;99.90
8008;DHT22;4049;49.468;11.200;2023-06-22T07:09:05;22.70;99.90
8008;DHT22;4049;49.468;11.200;2023-06-22T07:11:32;22.90;99.90
8008;DHT22;4049;49.468;11.200;2023-06-22T07:13:58;23.00;99.90
8008;DHT22;4049;49.468;11.200;2023-06-22T07:16:26;23.10;99.90
8008;DHT22;4049;49.468;11.200;2023-06-22T07:18:54;23.20;99.90
8008;DHT22;4049;49.468;11.200;2023-06-22T07:21:21;23.30;99.90
8008;DHT22;4049;49.468;11.200;2023-06-22T07:23:49;23.40;99.90
8008;DHT22;4049;49.468;11.200;2023-06-22T07:26:16;23.50;99.90
8008;DHT22;4049;49.468;11.200;2023-06-22T07:28:42;23.60;99.90
8008;DHT22;4049;49.468;11.200;2023-06-22T07:31:09;23.80;99.90
8008;DHT22;4049;49.468;11.200;2023-06-22T07:33:36;23.90;99.90
8008;DHT22;4049;49.468;11.200;2023-06-22T07:36:04;24.00;99.90
8008;DHT22;4049;49.468;11.200;2023-06-22T07:38:33;24.10;99.90
8008;DHT22;4049;49.468;11.200;2023-06-22T07:41:02;24.20;99.90
8008;DHT22;4049;49.468;11.200;2023-06-22T07:43:31;24.30;99.90
8008;DHT22;4049;49.468;11.200;2023-06-22T07:45:58;24.40;99.90
8008;DHT22;4049;49.468;11.200;2023-06-22T07:48:25;24.50;99.90
8008;DHT22;4049;49.468;11.200;2023-06-22T07:50:52;24.60;99.90
8008;DHT22;4049;49.468;11.200;2023-06-22T07:53:19;24.70;99.90
8008;DHT22;4049;49.468;11.200;2023-06-22T07:55:46;24.80;99.90
8008;DHT22;4049;49.468;11.200;2023-06-22T07:58:14;25.00;99.90
8008;DHT22;4049;49.468;11.200;2023-06-22T08:00:44;25.10;99.90
8008;DHT22;4049;49.468;11.200;2023-06-22T08:03:11;25.20;99.90
8008;DHT22;4049;49.468;11.200;2023-06-22T08:05:38;25.30;99.90
8008;DHT22;4049;49.468;11.200;2023-06-22T08:08:04;25.40;99.90
8008;DHT22;4049;49.468;11.200;2023-06-22T08:10:31;25.50;99.90
8008;DHT22;4049;49.468;11.200;2023-06-22T08:12:58;25.60;99.90
8008;DHT22;4049;49.468;11.200;2023-06-22T08:15:27;25.70;99.90
8008;DHT22;4049;49.468;11.200;2023-06-22T08:17:55;25.80;99.90
8008;DHT22;4049;49.468;11.200;2023-06-22T08:20:23;25.90;99.90
8008;DHT22;4049;49.468;11.200;2023-06-22T08:22:50;26.00;99.90
8008;DHT22;4049;49.468;11.200;2023-06-22T08:25:17;26.10;99.90
8008;DHT22;4049;49.468;11.200;2023-06-22T08:27:45;26.20;99.90
8008;DHT22;4049;49.468;11.200;2023-06-22T08:30:14;26.40;99.90
8008;DHT22;4049;49.468;11.200;2023-06-22T08:32:42;26.50;99.90
8008;DHT22;4049;49.468;11.200;2023-06-22T08:35:09;26.60;99.90
8008;DHT22;4049;49.468;11.200;2023-06-22T08:37:37;26.70;99.90
8008;DHT22;4049;49.468;11.200;2023-06-22T08:40:06;26.80;99.90
8008;DHT22;4049;49.468;11.200;2023-06-22T08:42:35;26.90;99.90
8008;DHT22;4049;49.468;11.200;2023-06-22T08:45:04;27.00;99.90
8008;DHT22;4049;49.468;11.200;2023-06-22T08:47:31;27.20;99.90
8008;DHT22;4049;49.468;11.200;2023-06-22T08:49:59;27.20;99.90
8008;DHT22;4049;49.468;11.200;2023-06-22T08:52:28;27.30;99.90
8008;DHT22;4049;49.468;11.200;2023-06-22T08:54:55;27.50;99.90
8008;DHT22;4049;49.468;11.200;2023-06-22T08:57:21;27.60;99.90
8008;DHT22;4049;49.468;11.200;2023-06-22T08:59:48;27.70;99.90
8008;DHT22;4049;49.468;11.200;2023-06-22T09:02:17;27.80;99.90
8008;DHT22;4049;49.468;11.200;2023-06-22T09:04:46;27.90;99.90
8008;DHT22;4049;49.468;11.200;2023-06-22T09:07:15;28.00;99.90
8008;DHT22;4049;49.468;11.200;2023-06-22T09:09:47;28.10;99.90
8008;DHT22;4049;49.468;11.200;2023-06-22T09:12:14;28.10;99.90
8008;DHT22;4049;49.468;11.200;2023-06-22T09:14:41;28.10;99.90
8008;DHT22;4049;49.468;11.200;2023-06-22T09:17:08;28.20;99.90
8008;DHT22;4049;49.468;11.200;2023-06-22T09:19:35;28.30;99.90
8008;DHT22;4049;49.468;11.200;2023-06-22T09:22:02;28.50;99.90
8008;DHT22;4049;49.468;11.200;2023-06-22T09:24:30;28.60;99.90
8008;DHT22;4049;49.468;11.200;2023-06-22T09:26:57;28.70;99.90
8008;DHT22;4049;49.468;11.200;2023-06-22T09:29:24;28.80;99.90
8008;DHT22;4049;49.468;11.200;2023-06-22T09:31:51;28.80;99.90
8008;DHT22;4049;49.468;11.200;2023-06-22T09:34:19;28.90;99.90
8008;DHT22;4049;49.468;11.200;2023-06-22T09:36:46;28.90;99.90
8008;DHT22;4049;49.468;11.200;2023-06-22T09:39:12;29.10;97.10
8008;DHT22;4049;49.468;11.200;2023-06-22T09:41:41;29.20;96.00
8008;DHT22;4049;49.468;11.200;2023-06-22T09:44:07;29.20;98.00
8008;DHT22;4049;49.468;11.200;2023-06-22T09:46:34;29.40;98.40
8008;DHT22;4049;49.468;11.200;2023-06-22T09:49:01;29.40;98.60
8008;DHT22;4049;49.468;11.200;2023-06-22T09:51:28;29.60;95.80
8008;DHT22;4049;49.468;11.200;2023-06-22T09:53:55;29.70;94.80
8008;DHT22;4049;49.468;11.200;2023-06-22T09:56:21;29.70;94.00
8008;DHT22;4049;49.468;11.200;2023-06-22T09:58:50;29.70;94.30
8008;DHT22;4049;49.468;11.200;2023-06-22T10:01:18;29.80;93.10
8008;DHT22;4049;49.468;11.200;2023-06-22T10:03:46;29.80;90.80
8008;DHT22;4049;49.468;11.200;2023-06-22T10:06:13;29.90;91.20
8008;DHT22;4049;49.468;11.200;2023-06-22T10:08:40;29.90;92.70
8008;DHT22;4049;49.468;11.200;2023-06-22T10:11:07;30.00;92.10
8008;DHT22;4049;49.468;11.200;2023-06-22T10:13:34;30.10;90.00
8008;DHT22;4049;49.468;11.200;2023-06-22T10:16:02;30.10;90.70
8008;DHT22;4049;49.468;11.200;2023-06-22T10:18:29;30.20;91.40
8008;DHT22;4049;49.468;11.200;2023-06-22T10:20:56;30.30;90.50
8008;DHT22;4049;49.468;11.200;2023-06-22T10:23:23;30.40;85.90
8008;DHT22;4049;49.468;11.200;2023-06-22T10:25:49;30.50;87.30
8008;DHT22;4049;49.468;11.200;2023-06-22T10:28:16;30.60;87.60
8008;DHT22;4049;49.468;11.200;2023-06-22T10:30:43;30.70;87.20
8008;DHT22;4049;49.468;11.200;2023-06-22T10:33:12;30.80;86.10
8008;DHT22;4049;49.468;11.200;2023-06-22T10:35:39;31.00;83.50
8008;DHT22;4049;49.468;11.200;2023-06-22T10:38:06;31.10;85.10
8008;DHT22;4049;49.468;11.200;2023-06-22T10:40:34;31.20;81.40
8008;DHT22;4049;49.468;11.200;2023-06-22T10:43:00;31.20;78.50
8008;DHT22;4049;49.468;11.200;2023-06-22T10:45:27;31.30;76.50
8008;DHT22;4049;49.468;11.200;2023-06-22T10:47:54;31.40;78.60
8008;DHT22;4049;49.468;11.200;2023-06-22T10:50:22;31.50;78.80
8008;DHT22;4049;49.468;11.200;2023-06-22T10:52:50;31.60;77.90
8008;DHT22;4049;49.468;11.200;2023-06-22T10:55:17;31.70;73.90
8008;DHT22;4049;49.468;11.200;2023-06-22T10:57:44;31.80;79.10
8008;DHT22;4049;49.468;11.200;2023-06-22T11:00:13;31.90;75.80
8008;DHT22;4049;49.468;11.200;2023-06-22T11:02:41;32.00;75.10
8008;DHT22;4049;49.468;11.200;2023-06-22T11:05:08;32.10;74.80
8008;DHT22;4049;49.468;11.200;2023-06-22T11:07:37;32.30;72.40
8008;DHT22;4049;49.468;11.200;2023-06-22T11:10:05;32.50;73.40
8008;DHT22;4049;49.468;11.200;2023-06-22T11:12:32;32.50;70.20
8008;DHT22;4049;49.468;11.200;2023-06-22T11:14:58;32.60;67.60
8008;DHT22;4049;49.468;11.200;2023-06-22T11:17:25;32.70;65.50
8008;DHT22;4049;49.468;11.200;2023-06-22T11:19:52;32.70;60.50
8008;DHT22;4049;49.468;11.200;2023-06-22T11:22:19;32.70;61.50
8008;DHT22;4049;49.468;11.200;2023-06-22T11:24:47;32.80;62.80
8008;DHT22;4049;49.468;11.200;2023-06-22T11:27:14;32.90;61.90
8008;DHT22;4049;49.468;11.200;2023-06-22T11:29:41;32.90;62.90
8008;DHT22;4049;49.468;11.200;2023-06-22T11:32:08;33.10;62.30
8008;DHT22;4049;49.468;11.200;2023-06-22T11:34:35;33.20;63.20
8008;DHT22;4049;49.468;11.200;2023-06-22T11:37:02;33.30;62.10
8008;DHT22;4049;49.468;11.200;2023-06-22T11:39:29;33.40;61.60
8008;DHT22;4049;49.468;11.200;2023-06-22T11:41:57;33.60;61.60
8008;DHT22;4049;49.468;11.200;2023-06-22T11:44:24;33.70;59.20
8008;DHT22;4049;49.468;11.200;2023-06-22T11:46:51;33.80;58.90
8008;DHT22;4049;49.468;11.200;2023-06-22T11:49:18;33.90;59.00
8008;DHT22;4049;49.468;11.200;2023-06-22T11:51:45;34.00;57.00
8008;DHT22;4049;49.468;11.200;2023-06-22T11:54:11;34.00;55.20
8008;DHT22;4049;49.468;11.200;2023-06-22T11:56:38;34.00;53.50
8008;DHT22;4049;49.468;11.200;2023-06-22T11:59:07;34.00;55.10
8008;DHT22;4049;49.468;11.200;2023-06-22T12:01:33;34.10;55.70
8008;DHT22;4049;49.468;11.200;2023-06-22T12:04:00;34.20;54.70
8008;DHT22;4049;49.468;11.200;2023-06-22T12:06:31;34.30;54.30
8008;DHT22;4049;49.468;11.200;2023-06-22T12:08:57;34.40;54.80
8008;DHT22;4049;49.468;11.200;2023-06-22T12:11:24;34.50;54.70
8008;DHT22;4049;49.468;11.200;2023-06-22T12:13:51;34.50;54.90
8008;DHT22;4049;49.468;11.200;2023-06-22T12:16:19;34.70;55.30
8008;DHT22;4049;49.468;11.200;2023-06-22T12:18:47;34.70;54.50
8008;DHT22;4049;49.468;11.200;2023-06-22T12:21:14;34.80;51.40
8008;DHT22;4049;49.468;11.200;2023-06-22T12:23:41;34.80;51.70
8008;DHT22;4049;49.468;11.200;2023-06-22T12:26:08;34.80;51.40
8008;DHT22;4049;49.468;11.200;2023-06-22T12:28:35;34.80;52.90
8008;DHT22;4049;49.468;11.200;2023-06-22T12:31:01;34.90;50.90
8008;DHT22;4049;49.468;11.200;2023-06-22T12:33:30;34.90;49.70
8008;DHT22;4049;49.468;11.200;2023-06-22T12:35:57;34.90;49.10
8008;DHT22;4049;49.468;11.200;2023-06-22T12:38:24;34.90;49.70
8008;DHT22;4049;49.468;11.200;2023-06-22T12:40:51;34.80;50.50
8008;DHT22;4049;49.468;11.200;2023-06-22T12:43:18;34.90;52.20
8008;DHT22;4049;49.468;11.200;2023-06-22T12:45:45;35.00;51.40
8008;DHT22;4049;49.468;11.200;2023-06-22T12:48:12;35.20;52.70
8008;DHT22;4049;49.468;11.200;2023-06-22T12:50:40;35.30;52.30
8008;DHT22;4049;49.468;11.200;2023-06-22T12:53:07;35.50;49.70
8008;DHT22;4049;49.468;11.200;2023-06-22T12:55:34;35.60;48.70
8008;DHT22;4049;49.468;11.200;2023-06-22T12:58:01;35.80;51.20
8008;DHT22;4049;49.468;11.200;2023-06-22T13:00:28;35.90;50.50
8008;DHT22;4049;49.468;11.200;2023-06-22T13:02:55;35.90;48.10
8008;DHT22;4049;49.468;11.200;2023-06-22T13:05:21;35.90;48.70
8008;DHT22;4049;49.468;11.200;2023-06-22T13:07:50;35.80;49.10
8008;DHT22;4049;49.468;11.200;2023-06-22T13:10:17;35.80;49.50
8008;DHT22;4049;49.468;11.200;2023-06-22T13:12:44;35.90;48.70
8008;DHT22;4049;49.468;11.200;2023-06-22T13:15:10;35.90;49.00
8008;DHT22;4049;49.468;11.200;2023-06-22T13:17:37;35.80;47.40
8008;DHT22;4049;49.468;11.200;2023-06-22T13:20:05;35.70;46.20
8008;DHT22;4049;49.468;11.200;2023-06-22T13:22:34;35.40;45.30
8008;DHT22;4049;49.468;11.200;2023-06-22T13:25:07;35.10;45.50
8008;DHT22;4049;49.468;11.200;2023-06-22T13:27:37;34.80;46.60
8008;DHT22;4049;49.468;11.200;2023-06-22T13:30:05;34.80;49.20
8008;DHT22;4049;49.468;11.200;2023-06-22T13:32:32;34.80;47.00
8008;DHT22;4049;49.468;11.200;2023-06-22T13:34:59;35.00;47.60
8008;DHT22;4049;49.468;11.200;2023-06-22T13:37:26;35.20;48.40
8008;DHT22;4049;49.468;11.200;2023-06-22T13:39:53;35.30;48.60
8008;DHT22;4049;49.468;11.200;2023-06-22T13:42:23;35.40;47.20
8008;DHT22;4049;49.468;11.200;2023-06-22T13:44:50;35.30;45.80
8008;DHT22;4049;49.468;11.200;2023-06-22T13:47:17;35.20;45.40
8008;DHT22;4049;49.468;11.200;2023-06-22T13:49:44;35.10;46.00
8008;DHT22;4049;49.468;11.200;2023-06-22T13:52:11;34.90;46.60
8008;DHT22;4049;49.468;11.200;2023-06-22T13:54:38;34.80;46.30
8008;DHT22;4049;49.468;11.200;2023-06-22T13:57:05;34.70;46.70
8008;DHT22;4049;49.468;11.200;2023-06-22T13:59:34;34.60;47.40
8008;DHT22;4049;49.468;11.200;2023-06-22T14:02:01;34.70;47.10
8008;DHT22;4049;49.468;11.200;2023-06-22T14:04:29;34.90;47.50
8008;DHT22;4049;49.468;11.200;2023-06-22T14:06:55;34.90;46.90
8008;DHT22;4049;49.468;11.200;2023-06-22T14:09:22;34.80;46.80
8008;DHT22;4049;49.468;11.200;2023-06-22T14:11:49;34.80;46.10
8008;DHT22;4049;49.468;11.200;2023-06-22T14:14:16;34.90;47.20
8008;DHT22;4049;49.468;11.200;2023-06-22T14:16:44;34.80;46.20
8008;DHT22;4049;49.468;11.200;2023-06-22T14:19:12;34.90;45.90
8008;DHT22;4049;49.468;11.200;2023-06-22T14:21:39;35.00;46.70
8008;DHT22;4049;49.468;11.200;2023-06-22T14:24:06;35.10;47.40
8008;DHT22;4049;49.468;11.200;2023-06-22T14:26:33;35.10;46.50
8008;DHT22;4049;49.468;11.200;2023-06-22T14:29:00;35.10;46.50
8008;DHT22;4049;49.468;11.200;2023-06-22T14:31:26;35.10;47.50
8008;DHT22;4049;49.468;11.200;2023-06-22T14:33:56;35.00;48.50
8008;DHT22;4049;49.468;11.200;2023-06-22T14:36:23;34.90;45.80
8008;DHT22;4049;49.468;11.200;2023-06-22T14:38:53;34.80;45.60
8008;DHT22;4049;49.468;11.200;2023-06-22T14:41:20;34.70;45.60
8008;DHT22;4049;49.468;11.200;2023-06-22T14:43:49;34.70;48.70
8008;DHT22;4049;49.468;11.200;2023-06-22T14:46:17;34.70;47.20
8008;DHT22;4049;49.468;11.200;2023-06-22T14:48:44;34.70;49.00
8008;DHT22;4049;49.468;11.200;2023-06-22T14:51:12;34.70;47.80
8008;DHT22;4049;49.468;11.200;2023-06-22T14:53:39;34.70;47.50
8008;DHT22;4049;49.468;11.200;2023-06-22T14:56:06;34.60;49.20
8008;DHT22;4049;49.468;11.200;2023-06-22T14:58:34;34.60;46.90
8008;DHT22;4049;49.468;11.200;2023-06-22T15:01:01;34.60;47.00
8008;DHT22;4049;49.468;11.200;2023-06-22T15:03:29;34.70;46.60
8008;DHT22;4049;49.468;11.200;2023-06-22T15:05:57;34.80;46.50
8008;DHT22;4049;49.468;11.200;2023-06-22T15:08:26;34.80;46.30
8008;DHT22;4049;49.468;11.200;2023-06-22T15:10:53;34.90;46.40
8008;DHT22;4049;49.468;11.200;2023-06-22T15:13:20;35.00;46.60
8008;DHT22;4049;49.468;11.200;2023-06-22T15:15:48;35.10;46.70
8008;DHT22;4049;49.468;11.200;2023-06-22T15:18:15;35.10;47.50
8008;DHT22;4049;49.468;11.200;2023-06-22T15:20:43;35.20;46.30
8008;DHT22;4049;49.468;11.200;2023-06-22T15:23:11;35.20;45.40
8008;DHT22;4049;49.468;11.200;2023-06-22T15:25:39;35.20;46.00
8008;DHT22;4049;49.468;11.200;2023-06-22T15:28:06;35.20;44.00
8008;DHT22;4049;49.468;11.200;2023-06-22T15:30:33;35.10;43.80
8008;DHT22;4049;49.468;11.200;2023-06-22T15:33:00;35.00;45.10
8008;DHT22;4049;49.468;11.200;2023-06-22T15:35:27;34.90;45.50
8008;DHT22;4049;49.468;11.200;2023-06-22T15:37:54;35.00;46.00
8008;DHT22;4049;49.468;11.200;2023-06-22T15:40:21;35.10;45.10
8008;DHT22;4049;49.468;11.200;2023-06-22T15:42:51;35.20;45.90
8008;DHT22;4049;49.468;11.200;2023-06-22T15:45:20;35.30;44.30
8008;DHT22;4049;49.468;11.200;2023-06-22T15:47:47;35.20;44.60